createdAt,value
2023-01-24T00:01:30.667Z,77.32
2023-01-24T00:03:58.966Z,77.67
2023-01-24T00:06:27.191Z,77.90
2023-01-24T00:08:55.262Z,77.83
2023-01-24T00:11:23.296Z,77.87
2023-01-24T00:13:51.853Z,77.90
2023-01-24T00:16:24.526Z,77.98
2023-01-24T00:18:54.469Z,78.01
2023-01-24T00:21:26.426Z,77.87
2023-01-24T00:23:56.667Z,77.62
2023-01-24T00:26:27.187Z,77.56
2023-01-24T00:28:56.576Z,77.52
2023-01-24T00:31:26.677Z,77.65
2023-01-24T00:33:58.663Z,77.55
2023-01-24T00:36:27.100Z,77.34
2023-01-24T00:38:56.157Z,77.23
2023-01-24T00:41:28.361Z,77.16
2023-01-24T00:43:57.092Z,77.19
2023-01-24T00:46:25.789Z,77.07
2023-01-24T00:48:55.062Z,76.93
2023-01-24T00:51:24.440Z,77.04
2023-01-24T00:53:54.017Z,77.04
2023-01-24T00:56:23.689Z,77.13
2023-01-24T00:58:51.848Z,77.08
2023-01-24T01:01:21.173Z,77.07
2023-01-24T01:03:49.334Z,77.19
2023-01-24T01:06:17.738Z,77.09
2023-01-24T01:08:46.858Z,77.12
2023-01-24T01:11:15.697Z,77.09
2023-01-24T01:13:44.628Z,77.19
2023-01-24T01:16:17.932Z,77.44
2023-01-24T01:18:51.601Z,77.50
2023-01-24T01:21:27.876Z,77.58
2023-01-24T01:24:15.917Z,77.62
2023-01-24T01:26:48.968Z,77.67
2023-01-24T01:29:17.113Z,77.73
2023-01-24T01:31:46.487Z,77.68
2023-01-24T01:34:15.167Z,77.79
2023-01-24T01:36:43.843Z,77.75
2023-01-24T01:39:13.254Z,77.85
2023-01-24T01:41:43.044Z,77.76
2023-01-24T01:44:47.745Z,77.88
2023-01-24T01:47:36.074Z,77.91
2023-01-24T01:50:34.179Z,78.09
2023-01-24T01:53:22.005Z,77.99
2023-01-24T01:55:57.625Z,78.04
2023-01-24T01:58:29.140Z,78.12
2023-01-24T02:01:25.474Z,78.14
2023-01-24T02:04:01.603Z,78.21
2023-01-24T02:06:50.886Z,78.30
2023-01-24T02:09:43.465Z,78.30
2023-01-24T02:12:37.634Z,78.36
2023-01-24T02:15:31.265Z,78.59
2023-01-24T02:18:04.517Z,78.61
2023-01-24T02:20:50.998Z,78.83
2023-01-24T02:23:32.721Z,78.88
2023-01-24T02:26:04.672Z,79.16
2023-01-24T02:28:36.153Z,79.14
2023-01-24T02:31:05.874Z,79.33
2023-01-24T02:33:40.354Z,79.29
2023-01-24T02:36:27.634Z,79.46
2023-01-24T02:39:06.349Z,79.60
2023-01-24T02:41:53.340Z,79.72
2023-01-24T02:44:34.223Z,79.92
2023-01-24T02:47:09.679Z,80.02
2023-01-24T02:49:55.863Z,80.07
2023-01-24T02:53:23.647Z,80.29
2023-01-24T02:56:12.823Z,80.52
2023-01-24T02:58:56.550Z,80.48
2023-01-24T03:02:10.473Z,80.55
2023-01-24T03:04:39.414Z,80.52
2023-01-24T03:07:43.443Z,80.87
2023-01-24T03:10:25.804Z,80.90
2023-01-24T03:13:33.309Z,80.86
2023-01-24T03:16:22.574Z,80.86
2023-01-24T03:19:10.604Z,81.11
2023-01-24T03:21:57.873Z,81.21
2023-01-24T03:24:46.407Z,81.28
2023-01-24T03:27:53.528Z,81.42
2023-01-24T03:30:45.075Z,81.44
2023-01-24T03:33:33.133Z,81.70
2023-01-24T03:36:08.537Z,81.78
2023-01-24T03:38:56.524Z,81.83
2023-01-24T03:42:06.806Z,81.92
2023-01-24T03:45:01.701Z,82.05
2023-01-24T03:48:16.375Z,81.96
2023-01-24T03:51:44.338Z,82.02
2023-01-24T03:55:17.949Z,82.41
2023-01-24T03:57:53.563Z,82.86
2023-01-24T04:00:23.104Z,83.08
2023-01-24T04:03:37.672Z,83.24
2023-01-24T04:06:30.076Z,83.72
2023-01-24T04:09:27.517Z,83.81
2023-01-24T04:11:57.635Z,83.88
2023-01-24T04:14:26.350Z,84.04
2023-01-24T04:17:25.179Z,84.13
2023-01-24T04:20:16.370Z,84.12
2023-01-24T04:22:53.213Z,84.10
2023-01-24T04:25:25.175Z,84.15
2023-01-24T04:27:53.989Z,84.17
2023-01-24T04:30:31.107Z,83.77
2023-01-24T04:33:05.952Z,84.00
2023-01-24T04:35:39.355Z,84.03
2023-01-24T04:38:16.945Z,83.94
2023-01-24T04:41:15.562Z,84.10
2023-01-24T04:43:53.057Z,84.17
2023-01-24T04:46:22.033Z,84.12
2023-01-24T04:48:58.040Z,83.99
2023-01-24T04:51:36.419Z,83.97
2023-01-24T04:54:07.015Z,84.06
2023-01-24T04:56:37.066Z,83.92
2023-01-24T04:59:05.965Z,83.84
2023-01-24T05:01:34.186Z,84.02
2023-01-24T05:04:09.480Z,84.07
2023-01-24T05:06:40.856Z,83.71
2023-01-24T05:09:15.375Z,83.43
2023-01-24T05:11:50.998Z,83.36
2023-01-24T05:14:20.393Z,83.26
2023-01-24T05:17:09.119Z,83.19
2023-01-24T05:19:38.724Z,83.18
2023-01-24T05:22:08.670Z,83.14
2023-01-24T05:25:00.346Z,83.14
2023-01-24T05:27:29.016Z,83.20
2023-01-24T05:30:15.388Z,83.32
2023-01-24T05:32:44.353Z,83.38
2023-01-24T05:35:12.966Z,83.34
2023-01-24T05:37:42.370Z,83.49
2023-01-24T05:40:11.546Z,83.56
2023-01-24T05:42:44.341Z,83.75
2023-01-24T05:45:12.496Z,83.72
2023-01-24T05:47:42.162Z,83.86
2023-01-24T05:50:12.453Z,83.76
2023-01-24T05:52:40.664Z,83.81
2023-01-24T05:55:09.423Z,83.93
2023-01-24T05:57:41.047Z,84.14
2023-01-24T06:00:16.825Z,84.19
2023-01-24T06:02:49.746Z,84.24
2023-01-24T06:05:18.428Z,84.16
2023-01-24T06:07:46.541Z,84.24
2023-01-24T06:10:15.416Z,84.36
2023-01-24T06:12:53.927Z,84.33
2023-01-24T06:15:22.169Z,84.51
2023-01-24T06:17:58.062Z,84.51
2023-01-24T06:20:27.120Z,84.66
2023-01-24T06:23:05.465Z,84.83
2023-01-24T06:25:35.973Z,84.71
2023-01-24T06:28:04.992Z,84.84
2023-01-24T06:30:33.429Z,84.88
2023-01-24T06:33:26.738Z,84.85
2023-01-24T06:36:25.189Z,85.01
2023-01-24T06:38:54.460Z,85.08
2023-01-24T06:41:23.187Z,85.29
2023-01-24T06:43:51.870Z,85.38
2023-01-24T06:46:21.422Z,85.59
2023-01-24T06:48:49.591Z,85.64
2023-01-24T06:51:17.871Z,85.49
2023-01-24T06:53:46.014Z,85.49
2023-01-24T06:56:14.027Z,85.59
2023-01-24T06:58:42.083Z,85.76
2023-01-24T07:01:10.639Z,85.93
2023-01-24T07:03:39.369Z,85.88
2023-01-24T07:06:07.520Z,86.04
2023-01-24T07:08:35.539Z,86.14
2023-01-24T07:11:04.152Z,86.16
2023-01-24T07:13:32.252Z,86.15
2023-01-24T07:16:03.727Z,86.17
2023-01-24T07:18:31.894Z,86.21
2023-01-24T07:21:00.280Z,86.15
2023-01-24T07:23:33.592Z,85.92
2023-01-24T07:26:04.701Z,85.76
2023-01-24T07:28:32.913Z,85.71
2023-01-24T07:31:04.653Z,85.47
2023-01-24T07:33:33.811Z,85.13
2023-01-24T07:36:02.226Z,85.14
2023-01-24T07:38:30.704Z,85.08
2023-01-24T07:40:59.123Z,85.01
2023-01-24T07:43:27.150Z,84.80
2023-01-24T07:45:55.255Z,84.39
2023-01-24T07:48:25.692Z,84.05
2023-01-24T07:50:54.221Z,83.00
2023-01-24T07:53:23.629Z,81.74
2023-01-24T07:56:02.022Z,81.13
2023-01-24T07:59:10.833Z,80.84
2023-01-24T08:01:46.802Z,80.50
2023-01-24T08:04:14.932Z,80.24
2023-01-24T08:07:02.911Z,80.04
2023-01-24T08:09:31.354Z,80.27
2023-01-24T08:11:59.393Z,80.47
2023-01-24T08:14:27.679Z,79.69
2023-01-24T08:16:55.687Z,79.47
2023-01-24T08:19:46.327Z,79.81
2023-01-24T08:22:15.471Z,79.53
2023-01-24T08:24:44.584Z,79.84
2023-01-24T08:27:13.208Z,79.54
2023-01-24T08:29:41.749Z,79.06
2023-01-24T08:32:11.223Z,78.54
2023-01-24T08:34:39.390Z,78.67
2023-01-24T08:37:08.520Z,78.75
2023-01-24T08:39:36.726Z,78.89
2023-01-24T08:42:05.849Z,78.77
2023-01-24T08:44:34.022Z,79.61
2023-01-24T08:47:02.957Z,79.90
2023-01-24T08:49:31.031Z,78.23
2023-01-24T08:52:01.804Z,76.25
2023-01-24T08:54:33.288Z,74.13
2023-01-24T08:57:01.241Z,74.54
2023-01-24T08:59:29.269Z,74.55
2023-01-24T09:01:57.355Z,74.34
2023-01-24T09:04:27.672Z,74.28
2023-01-24T09:06:55.686Z,74.64
2023-01-24T09:09:25.501Z,75.03
2023-01-24T09:11:54.307Z,74.49
2023-01-24T09:14:22.631Z,74.06
2023-01-24T09:16:50.602Z,74.75
2023-01-24T09:19:18.541Z,73.87
2023-01-24T09:21:49.773Z,73.58
2023-01-24T09:24:17.973Z,73.70
2023-01-24T09:26:46.545Z,73.23
2023-01-24T09:29:14.589Z,73.41
2023-01-24T09:31:42.750Z,73.83
2023-01-24T09:34:10.851Z,73.58
2023-01-24T09:36:38.847Z,73.95
2023-01-24T09:39:06.947Z,73.80
2023-01-24T09:42:11.042Z,74.07
2023-01-24T09:44:54.349Z,73.32
2023-01-24T09:47:33.448Z,72.65
2023-01-24T09:50:10.967Z,72.94
2023-01-24T09:52:44.245Z,73.01
2023-01-24T09:55:18.119Z,72.51
2023-01-24T09:57:58.145Z,70.27
2023-01-24T10:00:36.850Z,69.83
2023-01-24T10:03:15.409Z,69.74
2023-01-24T10:05:48.921Z,68.07
2023-01-24T10:08:41.198Z,67.44
2023-01-24T10:11:30.869Z,67.57
2023-01-24T10:14:19.524Z,66.92
2023-01-24T10:17:06.185Z,65.04
2023-01-24T10:20:12.848Z,64.78
2023-01-24T10:23:06.086Z,64.01
2023-01-24T10:25:54.213Z,63.56
2023-01-24T10:28:39.757Z,62.36
2023-01-24T10:31:38.800Z,62.46
2023-01-24T10:34:15.715Z,62.19
2023-01-24T10:36:58.064Z,61.81
2023-01-24T10:39:28.464Z,62.14
2023-01-24T10:41:56.585Z,61.63
2023-01-24T10:44:35.627Z,61.10
2023-01-24T10:47:11.026Z,61.82
2023-01-24T10:49:44.374Z,61.72
2023-01-24T10:52:23.085Z,62.09
2023-01-24T10:54:56.669Z,62.46
2023-01-24T10:57:27.529Z,61.45
2023-01-24T10:59:55.996Z,61.39
2023-01-24T11:02:25.982Z,61.69
2023-01-24T11:05:06.966Z,61.33
2023-01-24T11:07:39.909Z,61.93
2023-01-24T11:10:29.407Z,62.25
2023-01-24T11:13:02.761Z,62.80
2023-01-24T11:15:34.704Z,62.43
2023-01-24T11:18:11.637Z,62.95
2023-01-24T11:20:40.105Z,63.43
2023-01-24T11:23:22.255Z,63.37
2023-01-24T11:26:05.225Z,62.27
2023-01-24T11:28:36.967Z,61.71
2023-01-24T11:31:29.341Z,62.04
2023-01-24T11:34:09.576Z,61.80
2023-01-24T11:37:05.778Z,61.62
2023-01-24T11:40:22.373Z,61.58
2023-01-24T11:43:03.661Z,60.96
2023-01-24T11:46:15.909Z,60.78
2023-01-24T11:49:19.020Z,61.04
2023-01-24T11:51:59.808Z,60.67
2023-01-24T11:54:52.586Z,59.74
2023-01-24T11:57:54.678Z,59.81
2023-01-24T12:00:38.334Z,59.79
2023-01-24T12:03:23.552Z,60.51
2023-01-24T12:06:05.637Z,60.13
2023-01-24T12:09:12.719Z,58.90
2023-01-24T12:12:06.947Z,59.80
2023-01-24T12:14:40.782Z,59.47
2023-01-24T12:17:38.645Z,58.52
2023-01-24T12:20:30.464Z,57.82
2023-01-24T12:23:41.495Z,57.42
2023-01-24T12:26:31.668Z,57.42
2023-01-24T12:29:21.033Z,58.06
2023-01-24T12:31:49.027Z,57.54
2023-01-24T12:34:40.626Z,57.18
2023-01-24T12:37:20.489Z,56.41
2023-01-24T12:40:12.906Z,55.22
2023-01-24T12:43:10.545Z,55.93
2023-01-24T12:45:45.448Z,55.82
2023-01-24T12:48:30.002Z,55.15
2023-01-24T12:51:08.444Z,54.32
2023-01-24T12:54:02.538Z,53.66
2023-01-24T12:57:12.299Z,53.69
2023-01-24T12:59:40.427Z,53.41
2023-01-24T13:02:35.262Z,53.50
2023-01-24T13:05:09.253Z,54.43
2023-01-24T13:07:42.970Z,54.24
2023-01-24T13:10:19.735Z,54.34
2023-01-24T13:12:49.185Z,54.15
2023-01-24T13:15:22.575Z,54.16
2023-01-24T13:18:05.623Z,54.40
2023-01-24T13:20:50.063Z,54.34
2023-01-24T13:23:47.309Z,54.52
2023-01-24T13:26:50.968Z,55.07
2023-01-24T13:29:36.837Z,55.24
2023-01-24T13:32:19.891Z,54.77
2023-01-24T13:34:57.308Z,55.62
2023-01-24T13:37:26.869Z,56.18
2023-01-24T13:40:22.515Z,56.57
2023-01-24T13:42:51.286Z,56.25
2023-01-24T13:45:26.682Z,56.00
2023-01-24T13:47:56.471Z,55.94
2023-01-24T13:50:29.005Z,55.96
2023-01-24T13:52:59.034Z,56.43
2023-01-24T13:55:31.051Z,55.89
2023-01-24T13:58:08.583Z,55.79
2023-01-24T14:00:42.712Z,56.08
2023-01-24T14:03:29.646Z,56.26
2023-01-24T14:06:11.505Z,56.11
2023-01-24T14:08:42.361Z,56.28
2023-01-24T14:11:19.316Z,55.98
2023-01-24T14:13:56.209Z,55.91
2023-01-24T14:16:36.451Z,56.27
2023-01-24T14:19:22.546Z,56.72
2023-01-24T14:21:59.944Z,57.10
2023-01-24T14:24:34.362Z,57.48
2023-01-24T14:27:19.166Z,57.60
2023-01-24T14:29:54.849Z,57.82
2023-01-24T14:32:27.888Z,58.35
2023-01-24T14:35:24.476Z,58.80
2023-01-24T14:37:52.987Z,59.24
2023-01-24T14:40:30.578Z,59.70
2023-01-24T14:43:04.101Z,60.07
2023-01-24T14:45:33.838Z,60.35
2023-01-24T14:48:07.960Z,60.71
2023-01-24T14:50:38.772Z,60.95
2023-01-24T14:53:38.979Z,61.45
2023-01-24T14:56:13.287Z,61.98
2023-01-24T14:58:41.525Z,62.48
2023-01-24T15:01:28.703Z,63.05
2023-01-24T15:03:57.829Z,63.82
2023-01-24T15:06:28.308Z,64.48
2023-01-24T15:09:01.604Z,64.74
2023-01-24T15:11:35.354Z,65.28
2023-01-24T15:14:16.593Z,65.73
2023-01-24T15:16:52.231Z,66.25
2023-01-24T15:19:23.901Z,66.68
2023-01-24T15:21:54.565Z,66.63
2023-01-24T15:24:31.245Z,66.81
2023-01-24T15:27:00.172Z,67.11
2023-01-24T15:29:47.815Z,67.35
2023-01-24T15:32:29.976Z,67.49
2023-01-24T15:35:19.220Z,67.61
2023-01-24T15:37:47.241Z,67.63
2023-01-24T15:40:21.153Z,67.77
2023-01-24T15:43:08.162Z,67.92
2023-01-24T15:45:39.373Z,67.98
2023-01-24T15:48:21.805Z,68.04
2023-01-24T15:51:11.006Z,68.09
2023-01-24T15:53:42.044Z,67.98
2023-01-24T15:56:16.759Z,68.18
2023-01-24T15:58:47.812Z,68.33
2023-01-24T16:01:16.364Z,68.35
2023-01-24T16:03:44.320Z,68.35
2023-01-24T16:06:12.213Z,68.45
2023-01-24T16:08:40.199Z,68.47
2023-01-24T16:11:09.469Z,68.72
2023-01-24T16:13:40.581Z,68.74
2023-01-24T16:16:13.185Z,68.89
2023-01-24T16:18:42.326Z,69.04
2023-01-24T16:21:10.884Z,69.33
2023-01-24T16:23:38.813Z,69.35
2023-01-24T16:26:20.365Z,69.46
2023-01-24T16:28:48.505Z,69.83
2023-01-24T16:31:16.643Z,69.95
2023-01-24T16:33:44.728Z,70.01
2023-01-24T16:36:14.610Z,70.30
2023-01-24T16:38:44.951Z,70.43
2023-01-24T16:41:14.675Z,70.58
2023-01-24T16:43:45.755Z,70.64
2023-01-24T16:46:21.798Z,70.84
2023-01-24T16:48:50.613Z,70.90
2023-01-24T16:51:20.348Z,70.99
2023-01-24T16:53:48.307Z,70.82
2023-01-24T16:56:16.201Z,70.95
2023-01-24T16:58:44.171Z,71.06
2023-01-24T17:01:12.253Z,71.02
2023-01-24T17:03:40.684Z,71.16
2023-01-24T17:06:10.423Z,71.16
2023-01-24T17:08:38.640Z,71.26
2023-01-24T17:11:11.309Z,71.38
2023-01-24T17:13:39.256Z,71.36
2023-01-24T17:16:10.125Z,71.49
2023-01-24T17:18:38.404Z,71.67
2023-01-24T17:21:10.375Z,71.62
2023-01-24T17:23:39.266Z,71.69
2023-01-24T17:26:11.010Z,71.81
2023-01-24T17:28:40.303Z,71.90
2023-01-24T17:31:19.817Z,72.07
2023-01-24T17:33:48.433Z,72.18
2023-01-24T17:36:19.104Z,72.22
2023-01-24T17:38:48.211Z,72.22
2023-01-24T17:41:18.029Z,72.36
2023-01-24T17:43:52.889Z,72.48
2023-01-24T17:46:21.717Z,72.57
2023-01-24T17:48:49.734Z,72.67
2023-01-24T17:51:18.765Z,72.72
2023-01-24T17:53:47.705Z,72.93
2023-01-24T17:56:17.230Z,72.90
2023-01-24T17:58:45.575Z,72.88
2023-01-24T18:01:15.715Z,73.14
2023-01-24T18:03:44.870Z,73.43
2023-01-24T18:06:13.631Z,73.70
2023-01-24T18:08:41.606Z,73.88
2023-01-24T18:11:15.387Z,74.07
2023-01-24T18:13:43.926Z,74.34
2023-01-24T18:16:17.738Z,74.34
2023-01-24T18:18:45.788Z,74.30
2023-01-24T18:21:22.748Z,74.30
2023-01-24T18:23:55.422Z,74.60
2023-01-24T18:26:25.241Z,74.77
2023-01-24T18:28:54.235Z,74.82
2023-01-24T18:31:22.296Z,74.63
2023-01-24T18:33:54.920Z,74.64
2023-01-24T18:36:23.521Z,74.58
2023-01-24T18:38:52.896Z,74.44
2023-01-24T18:41:21.610Z,74.45
2023-01-24T18:43:49.794Z,74.39
2023-01-24T18:46:17.868Z,74.36
2023-01-24T18:48:46.001Z,74.29
2023-01-24T18:51:19.548Z,74.49
2023-01-24T18:53:49.362Z,74.69
2023-01-24T18:56:18.627Z,74.74
2023-01-24T18:58:47.434Z,74.71
2023-01-24T19:01:24.651Z,74.69
2023-01-24T19:03:53.828Z,74.61
2023-01-24T19:06:30.403Z,74.63
2023-01-24T19:09:04.356Z,74.78
2023-01-24T19:11:35.535Z,74.83
2023-01-24T19:14:04.627Z,75.08
2023-01-24T19:16:40.523Z,74.97
2023-01-24T19:19:15.109Z,74.86
2023-01-24T19:21:43.487Z,74.99
2023-01-24T19:24:11.589Z,75.11
2023-01-24T19:26:39.853Z,75.07
2023-01-24T19:29:07.797Z,75.16
2023-01-24T19:31:35.982Z,75.20
2023-01-24T19:34:05.661Z,75.23
2023-01-24T19:36:34.365Z,75.30
2023-01-24T19:39:03.392Z,75.60
2023-01-24T19:41:31.338Z,75.64
2023-01-24T19:46:49.235Z,76.00
2023-01-24T19:49:18.269Z,76.09
2023-01-24T19:51:46.407Z,76.15
2023-01-24T19:54:14.829Z,76.29
2023-01-24T19:56:42.845Z,76.31
2023-01-24T19:59:10.989Z,76.78
2023-01-24T20:01:39.001Z,76.86
2023-01-24T20:04:22.556Z,77.06
2023-01-24T20:06:54.167Z,77.23
2023-01-24T20:09:23.914Z,77.39
2023-01-24T20:11:52.943Z,77.63
2023-01-24T20:14:21.079Z,77.53
2023-01-24T20:16:49.582Z,77.83
2023-01-24T20:19:28.024Z,77.91
2023-01-24T20:21:58.792Z,78.15
2023-01-24T20:24:27.609Z,78.26
2023-01-24T20:26:55.609Z,78.30
2023-01-24T20:29:25.206Z,78.28
2023-01-24T20:31:54.604Z,78.32
2023-01-24T20:34:24.000Z,78.46
2023-01-24T20:36:52.688Z,78.64
2023-01-24T20:39:21.547Z,79.00
2023-01-24T20:41:50.942Z,78.84
2023-01-24T20:44:27.068Z,79.13
2023-01-24T20:46:58.470Z,79.07
2023-01-24T20:49:26.805Z,79.22
2023-01-24T20:51:55.696Z,79.39
2023-01-24T20:54:24.404Z,79.22
2023-01-24T20:56:57.667Z,79.24
2023-01-24T20:59:29.475Z,79.39
2023-01-24T21:01:57.479Z,79.68
2023-01-24T21:04:25.921Z,79.94
2023-01-24T21:06:53.858Z,79.89
2023-01-24T21:09:22.834Z,79.85
2023-01-24T21:11:51.446Z,79.98
2023-01-24T21:14:22.678Z,80.23
2023-01-24T21:16:50.812Z,80.28
2023-01-24T21:19:19.570Z,80.54
2023-01-24T21:21:49.293Z,80.57
2023-01-24T21:24:34.355Z,80.62
2023-01-24T21:27:03.379Z,80.62
2023-01-24T21:29:31.668Z,80.61
2023-01-24T21:32:01.068Z,80.71
2023-01-24T21:34:29.380Z,80.94
2023-01-24T21:36:58.044Z,81.01
2023-01-24T21:39:26.539Z,80.97
2023-01-24T21:41:55.404Z,81.21
2023-01-24T21:44:31.442Z,81.25
2023-01-24T21:47:04.220Z,81.64
2023-01-24T21:49:32.531Z,81.93
2023-01-24T21:52:01.955Z,81.94
2023-01-24T21:54:32.578Z,82.08
2023-01-24T21:57:31.248Z,82.37
2023-01-24T22:00:04.272Z,82.34
2023-01-24T22:02:42.499Z,82.47
2023-01-24T22:05:11.227Z,82.48
2023-01-24T22:07:39.379Z,82.47
2023-01-24T22:10:08.173Z,82.54
2023-01-24T22:12:36.716Z,82.61
2023-01-24T22:15:05.513Z,82.71
2023-01-24T22:17:34.877Z,82.67
2023-01-24T22:20:03.146Z,82.57
2023-01-24T22:23:00.542Z,82.61
2023-01-24T22:25:36.493Z,82.67
2023-01-24T22:28:04.743Z,82.69
2023-01-24T22:30:34.643Z,82.80
2023-01-24T22:33:02.816Z,82.77
2023-01-24T22:35:30.984Z,83.04
2023-01-24T22:38:01.162Z,82.75
2023-01-24T22:40:29.523Z,82.72
2023-01-24T22:42:58.669Z,83.03
2023-01-24T22:45:28.641Z,83.02
2023-01-24T22:47:57.398Z,83.00
2023-01-24T22:50:25.421Z,82.94
2023-01-24T22:52:53.598Z,83.06
2023-01-24T22:55:21.576Z,82.92
2023-01-24T22:57:49.513Z,82.77
2023-01-24T23:00:17.950Z,82.87
2023-01-24T23:02:45.845Z,82.91
2023-01-24T23:05:14.020Z,82.85
2023-01-24T23:07:42.096Z,82.88
